Time;durP1;ratioP1;P1;durP2;ratioP2;P2;SDS_P1;SDS_P2;PMS_P1;PMS_P2;Temp;Humidity;BMP_temperature;BMP_pressure;BME280_temperature;BME280_humidity;BME280_pressure;Samples;Min_cycle;Max_cycle;Signal;HPM_P1;HPM_P2
2021/06/05 00:00:33;;;;;;;13.43;12.40;;;;;;;21.54;53.65;101597.59;5037829;28;20181;-68
2021/06/05 00:03:00;;;;;;;13.43;12.17;;;;;;;21.50;53.76;101594.13;5037835;28;20213;-68
2021/06/05 00:05:28;;;;;;;13.43;12.33;;;;;;;21.02;55.19;101600.44;5039110;28;20411;-68
2021/06/05 00:07:53;;;;;;;13.23;12.00;;;;;;;20.28;57.41;101598.25;5039406;28;20490;-67
2021/06/05 00:10:30;;;;;;;14.27;13.07;;;;;;;20.65;57.45;101593.19;5037752;28;20454;-67
2021/06/05 00:12:56;;;;;;;14.07;13.03;;;;;;;20.01;59.37;101589.88;5036906;28;20223;-66
2021/06/05 00:15:27;;;;;;;14.20;12.73;;;;;;;20.29;58.86;101584.13;5037863;28;20395;-67
2021/06/05 00:17:52;;;;;;;13.60;12.30;;;;;;;19.94;59.95;101590.88;5047153;28;20677;-67
2021/06/05 00:20:17;;;;;;;14.53;13.10;;;;;;;19.84;60.18;101588.38;5057557;28;20489;-67
2021/06/05 00:22:43;;;;;;;14.37;12.97;;;;;;;19.83;60.33;101589.25;5057986;28;20311;-67
2021/06/05 00:25:12;;;;;;;14.73;13.50;;;;;;;20.40;58.54;101594.53;5061246;28;20591;-68
2021/06/05 00:27:37;;;;;;;16.30;14.90;;;;;;;20.09;58.91;101597.69;5042656;28;20261;-67
2021/06/05 00:30:04;;;;;;;14.63;13.33;;;;;;;20.71;57.34;101594.00;5042937;28;20489;-67
2021/06/05 00:32:30;;;;;;;14.60;13.30;;;;;;;20.90;56.73;101591.88;5061307;28;20184;-68
2021/06/05 00:34:55;;;;;;;14.37;13.13;;;;;;;19.87;59.29;101590.09;5061339;28;20408;-68
2021/06/05 00:37:21;;;;;;;14.80;13.30;;;;;;;19.55;60.53;101587.91;5054224;28;20193;-68
2021/06/05 00:39:46;;;;;;;13.77;12.70;;;;;;;19.55;60.73;101593.19;5041170;28;20191;-67
2021/06/05 00:42:11;;;;;;;13.93;12.73;;;;;;;19.55;60.89;101593.19;5041174;28;20170;-67
2021/06/05 00:44:37;;;;;;;14.00;12.80;;;;;;;19.58;60.51;101588.72;5041647;28;20177;-68
2021/06/05 00:47:02;;;;;;;13.10;11.97;;;;;;;19.49;60.93;101589.72;5042376;28;20177;-67
2021/06/05 00:49:27;;;;;;;14.30;13.10;;;;;;;19.81;60.10;101585.78;5040429;28;20170;-67
2021/06/05 00:51:56;;;;;;;14.70;13.60;;;;;;;19.71;59.63;101585.91;5041327;28;20236;-67
2021/06/05 00:54:22;;;;;;;14.17;13.00;;;;;;;19.96;59.23;101589.94;5040171;28;20248;-67
2021/06/05 00:56:51;;;;;;;13.13;12.13;;;;;;;19.93;58.89;101589.13;5041272;28;20436;-67
2021/06/05 00:59:16;;;;;;;14.33;13.00;;;;;;;20.29;57.39;101587.63;5040738;28;20387;-67
2021/06/05 01:01:42;;;;;;;13.70;12.50;;;;;;;20.48;57.13;101592.63;5040675;28;20692;-67
2021/06/05 01:04:07;;;;;;;12.40;11.50;;;;;;;20.30;56.86;101597.34;5040834;28;20579;-67
2021/06/05 01:06:43;;;;;;;13.23;11.93;;;;;;;20.73;55.31;101605.44;5041096;28;20166;-67
2021/06/05 01:09:34;;;;;;;12.43;11.43;;;;;;;21.05;54.39;101601.28;5058416;28;20184;-67
2021/06/05 01:12:10;;;;;;;13.60;12.40;;;;;;;21.03;54.35;101603.97;5055269;28;20412;-68
2021/06/05 01:14:49;;;;;;;13.83;12.73;;;;;;;19.97;56.97;101606.69;5058307;28;20402;-68
2021/06/05 01:17:35;;;;;;;13.50;12.40;;;;;;;19.95;57.75;101604.06;5055425;28;20504;-68
2021/06/05 01:20:07;;;;;;;13.50;12.27;;;;;;;19.69;58.14;101604.44;5039822;28;20388;-67
2021/06/05 01:22:58;;;;;;;13.10;12.03;;;;;;;19.46;59.54;101603.00;5044113;28;20446;-68
2021/06/05 01:25:45;;;;;;;12.40;11.27;;;;;;;19.63;59.36;101607.16;5051818;28;20458;-68
2021/06/05 01:28:22;;;;;;;14.23;12.93;;;;;;;19.33;60.17;101604.06;5042024;28;20422;-68
2021/06/05 01:30:51;;;;;;;14.90;13.70;;;;;;;19.56;59.47;101600.22;5040396;28;20659;-68
2021/06/05 01:33:18;;;;;;;13.70;12.50;;;;;;;19.25;60.18;101606.78;5039016;28;20826;-68
2021/06/05 01:35:43;;;;;;;24.50;20.83;;;;;;;20.09;58.16;101603.84;5038979;28;20424;-67
2021/06/05 01:38:11;;;;;;;14.13;12.77;;;;;;;19.46;59.46;101605.63;5041737;28;20419;-68
2021/06/05 01:40:36;;;;;;;12.60;11.63;;;;;;;19.63;59.00;101607.16;5039685;28;20189;-68
2021/06/05 01:43:04;;;;;;;14.00;12.70;;;;;;;19.84;58.16;101600.72;5039287;28;20798;-68
2021/06/05 01:45:32;;;;;;;12.27;11.37;;;;;;;19.65;59.48;101605.41;5039432;28;20519;-68
2021/06/05 01:47:58;;;;;;;19.17;17.17;;;;;;;19.91;58.44;101606.81;5039146;28;20428;-67
2021/06/05 01:50:28;;;;;;;14.23;12.83;;;;;;;19.40;60.04;101610.13;5041155;28;20699;-67
2021/06/05 01:52:54;;;;;;;13.47;12.37;;;;;;;19.07;61.35;101610.53;5039493;28;20419;-67
2021/06/05 01:55:32;;;;;;;15.40;13.97;;;;;;;19.49;60.10;101607.38;5040325;28;20398;-67
2021/06/05 01:58:00;;;;;;;15.17;13.77;;;;;;;20.11;58.74;101604.72;5039938;28;20745;-67
2021/06/05 02:00:29;;;;;;;20.83;18.73;;;;;;;20.10;57.52;101613.53;5039027;28;20448;-67
2021/06/05 02:02:56;;;;;;;14.50;13.30;;;;;;;19.15;60.69;101613.97;5039589;28;20543;-67
2021/06/05 02:05:24;;;;;;;13.83;12.63;;;;;;;19.37;60.51;101607.53;5038852;28;20384;-67
2021/06/05 02:07:53;;;;;;;15.43;14.20;;;;;;;19.61;59.51;101614.28;5045480;28;20796;-67
2021/06/05 02:10:19;;;;;;;16.97;15.50;;;;;;;20.00;58.78;101614.59;5058504;28;20402;-67
2021/06/05 02:12:45;;;;;;;24.33;21.90;;;;;;;19.92;59.11;101609.44;5059524;28;20391;-68
2021/06/05 02:15:22;;;;;;;15.47;14.17;;;;;;;19.38;59.92;101612.81;5059384;28;20452;-67
2021/06/05 02:17:48;;;;;;;14.67;13.47;;;;;;;18.77;61.60;101612.59;5050715;28;20185;-67
2021/06/05 02:20:27;;;;;;;14.53;13.23;;;;;;;18.95;61.82;101608.03;5038687;28;20834;-68
2021/06/05 02:22:53;;;;;;;14.57;13.43;;;;;;;19.43;60.50;101604.78;5039025;28;20506;-66
2021/06/05 02:25:22;;;;;;;14.57;13.47;;;;;;;19.26;60.84;101612.97;5039276;28;20488;-68
2021/06/05 02:27:53;;;;;;;14.37;13.07;;;;;;;19.23;60.47;101605.06;5041164;28;20706;-67
2021/06/05 02:30:20;;;;;;;16.20;14.80;;;;;;;19.54;59.96;101600.25;5039451;28;20419;-67
2021/06/05 02:32:46;;;;;;;21.93;19.77;;;;;;;19.37;60.66;101595.19;5038959;28;20849;-67
2021/06/05 02:35:15;;;;;;;16.20;14.70;;;;;;;19.02;61.70;101607.06;5038293;28;20387;-67
2021/06/05 02:37:41;;;;;;;14.80;13.70;;;;;;;19.39;60.37;101605.72;5040726;28;20178;-68
2021/06/05 02:40:10;;;;;;;14.90;13.70;;;;;;;19.24;60.82;101598.88;5038882;28;20904;-68
2021/06/05 02:42:38;;;;;;;19.50;17.70;;;;;;;18.89;62.15;101605.44;5038068;28;20205;-68
2021/06/05 02:45:08;;;;;;;14.00;12.90;;;;;;;18.94;62.22;101595.72;5038687;28;20841;-67
2021/06/05 02:47:34;;;;;;;15.03;13.83;;;;;;;18.75;62.32;101598.53;5039437;28;20454;-67
2021/06/05 02:50:00;;;;;;;14.63;13.53;;;;;;;18.24;63.82;101598.13;5038961;28;20433;-68
2021/06/05 02:52:28;;;;;;;14.53;13.00;;;;;;;18.15;64.40;101605.25;5037940;28;20170;-67
2021/06/05 02:55:13;;;;;;;14.13;12.93;;;;;;;18.02;65.05;101598.31;5039060;28;20432;-68
2021/06/05 02:57:38;;;;;;;14.43;13.33;;;;;;;17.93;65.40;101595.75;5040219;28;20461;-67
2021/06/05 03:00:09;;;;;;;14.07;12.97;;;;;;;18.08;64.61;101595.63;5038774;28;20413;-68
2021/06/05 03:02:34;;;;;;;14.80;13.60;;;;;;;18.10;64.29;101590.34;5038381;28;20639;-68
2021/06/05 03:04:59;;;;;;;14.17;12.73;;;;;;;18.06;64.43;101594.75;5038986;28;20437;-68
2021/06/05 03:07:25;;;;;;;14.20;13.10;;;;;;;18.07;64.19;101590.38;5040875;28;20185;-68
2021/06/05 03:09:50;;;;;;;14.70;13.30;;;;;;;17.91;64.68;101589.56;5038800;28;20528;-68
2021/06/05 03:12:16;;;;;;;15.47;14.17;;;;;;;18.35;63.63;101585.75;5038753;28;20244;-68
2021/06/05 03:14:41;;;;;;;14.97;13.77;;;;;;;18.78;61.96;101585.31;5038491;28;20189;-68
2021/06/05 03:17:08;;;;;;;14.73;13.43;;;;;;;18.48;62.23;101583.84;5039494;28;20182;-69
2021/06/05 03:19:35;;;;;;;14.60;13.40;;;;;;;18.87;61.36;101581.66;5038348;28;20182;-68
2021/06/05 03:22:00;;;;;;;13.90;12.77;;;;;;;18.38;62.95;101590.97;5037488;28;20468;-68
2021/06/05 03:24:26;;;;;;;14.60;13.30;;;;;;;18.49;62.49;101586.47;5045700;28;20521;-68
2021/06/05 03:26:53;;;;;;;13.40;12.30;;;;;;;18.07;63.59;101590.38;5041333;28;20178;-68
2021/06/05 03:29:18;;;;;;;13.73;12.53;;;;;;;18.66;62.09;101581.03;5042520;28;20236;-68
2021/06/05 03:31:43;;;;;;;13.10;12.00;;;;;;;18.48;62.15;101578.56;5038016;28;20836;-68
2021/06/05 03:34:09;;;;;;;14.57;13.37;;;;;;;19.05;60.44;101580.63;5038721;28;20517;-68
2021/06/05 03:36:34;;;;;;;13.93;12.77;;;;;;;19.14;59.86;101575.19;5038090;28;20172;-68
2021/06/05 03:39:00;;;;;;;13.77;12.67;;;;;;;18.48;61.94;101581.19;5038864;28;20252;-68
2021/06/05 03:41:25;;;;;;;14.13;12.87;;;;;;;18.50;61.64;101575.00;5047694;28;20195;-68
2021/06/05 03:43:51;;;;;;;14.60;13.30;;;;;;;19.19;59.17;101572.50;5038041;28;20202;-68
2021/06/05 03:46:16;;;;;;;13.93;12.80;;;;;;;19.13;58.96;101576.13;5039260;28;20260;-68
2021/06/05 03:48:42;;;;;;;13.83;12.53;;;;;;;19.22;58.77;101572.47;5051893;28;20231;-67
2021/06/05 03:51:07;;;;;;;13.20;12.10;;;;;;;19.17;58.73;101569.00;5057816;28;20192;-67
2021/06/05 03:53:33;;;;;;;12.87;11.83;;;;;;;18.73;59.77;101581.81;5058019;28;20199;-68
2021/06/05 03:55:59;;;;;;;13.47;12.30;;;;;;;18.92;59.47;101585.16;5053036;28;20418;-67
2021/06/05 03:58:30;;;;;;;13.93;12.77;;;;;;;19.32;57.32;101584.69;5037260;28;20208;-67
2021/06/05 04:00:56;;;;;;;12.17;11.17;;;;;;;19.24;57.24;101588.31;5037755;28;20181;-68
2021/06/05 04:03:21;;;;;;;11.83;10.83;;;;;;;19.93;55.72;101584.72;5038154;28;20419;-68
2021/06/05 04:05:47;;;;;;;12.50;11.40;;;;;;;20.35;54.60;101581.38;5049456;28;20428;-68
2021/06/05 04:08:12;;;;;;;11.57;10.67;;;;;;;20.07;54.95;101581.84;5057653;28;20205;-68
2021/06/05 04:10:38;;;;;;;11.90;10.80;;;;;;;20.86;53.14;101581.34;5052628;28;20174;-68
2021/06/05 04:13:04;;;;;;;12.33;11.37;;;;;;;21.15;51.80;101577.19;5037491;28;20189;-68
2021/06/05 04:15:30;;;;;;;11.47;10.57;;;;;;;21.81;49.91;101573.97;5037872;28;20178;-68
2021/06/05 04:18:04;;;;;;;11.53;10.63;;;;;;;20.62;51.77;101580.00;5037757;28;20410;-68
2021/06/05 04:20:30;;;;;;;11.30;10.30;;;;;;;21.08;51.56;101578.25;5043219;28;20436;-67
2021/06/05 04:22:55;;;;;;;10.87;9.97;;;;;;;21.81;49.22;101579.28;5044766;28;20697;-67
2021/06/05 04:25:21;;;;;;;11.30;10.17;;;;;;;22.03;48.72;101585.84;5040403;28;20479;-68
2021/06/05 04:27:47;;;;;;;10.57;9.77;;;;;;;22.91;46.73;101573.81;5037438;28;20181;-68
2021/06/05 04:30:13;;;;;;;10.73;9.70;;;;;;;23.37;45.10;101577.81;5039041;28;20182;-68
2021/06/05 04:32:39;;;;;;;11.30;10.50;;;;;;;22.93;45.82;101571.97;5044449;28;20441;-68
2021/06/05 04:35:06;;;;;;;11.33;10.20;;;;;;;23.55;43.86;101579.88;5036839;28;20575;-66
2021/06/05 04:37:32;;;;;;;10.57;9.77;;;;;;;24.65;42.77;101576.28;5037907;28;20177;-67
2021/06/05 04:39:57;;;;;;;10.67;9.80;;;;;;;23.10;45.88;101568.84;5037752;28;20455;-68
2021/06/05 04:42:23;;;;;;;10.17;9.43;;;;;;;24.68;41.42;101572.63;5037569;28;20596;-67
2021/06/05 04:44:48;;;;;;;10.40;9.60;;;;;;;23.27;45.32;101579.84;5038093;28;20338;-67
2021/06/05 04:47:13;;;;;;;9.73;9.03;;;;;;;24.43;41.96;101567.28;5037270;28;20260;-67
2021/06/05 04:49:38;;;;;;;10.00;9.13;;;;;;;24.43;42.47;101564.63;5037454;28;20174;-68
2021/06/05 04:52:05;;;;;;;10.67;9.77;;;;;;;23.20;45.86;101568.56;5037616;28;20555;-69
2021/06/05 04:54:31;;;;;;;10.23;9.30;;;;;;;23.13;45.01;101572.28;5049852;28;20554;-66
2021/06/05 04:56:56;;;;;;;10.83;9.73;;;;;;;24.01;43.75;101560.72;5057122;28;20435;-68
2021/06/05 04:59:22;;;;;;;11.53;10.20;;;;;;;23.76;43.68;101566.81;5055624;28;20181;-67
2021/06/05 05:01:48;;;;;;;10.20;9.30;;;;;;;25.19;41.20;101565.41;5037068;28;20174;-66
2021/06/05 05:04:13;;;;;;;10.70;9.90;;;;;;;23.86;43.22;101565.59;5037143;28;20232;-69
2021/06/05 05:06:39;;;;;;;10.83;9.93;;;;;;;23.66;44.18;101568.03;5037589;28;20520;-67
2021/06/05 05:09:07;;;;;;;10.70;9.93;;;;;;;23.26;45.91;101569.25;5038259;28;20174;-67
2021/06/05 05:11:33;;;;;;;10.77;9.97;;;;;;;24.10;43.66;101570.16;5041697;28;20551;-68
2021/06/05 05:13:58;;;;;;;11.40;10.50;;;;;;;22.56;47.09;101573.88;5044680;28;20462;-66
2021/06/05 05:16:24;;;;;;;11.07;9.97;;;;;;;22.23;48.01;101568.53;5042886;28;20213;-66
2021/06/05 05:18:49;;;;;;;10.83;9.93;;;;;;;23.85;44.40;101573.63;5051053;28;20413;-65
2021/06/05 05:21:16;;;;;;;10.67;9.87;;;;;;;23.96;44.25;101573.31;5040929;28;20177;-67
2021/06/05 05:23:42;;;;;;;11.40;10.40;;;;;;;23.58;44.69;101570.06;5048024;28;20289;-67
2021/06/05 05:26:08;;;;;;;11.60;10.70;;;;;;;24.36;43.26;101563.97;5052522;28;20551;-66
2021/06/05 05:28:35;;;;;;;9.90;9.10;;;;;;;23.85;43.77;101571.81;5061004;28;20558;-67
2021/06/05 05:31:03;;;;;;;11.07;10.07;;;;;;;22.35;47.33;101575.31;5041064;28;20421;-66
2021/06/05 05:33:29;;;;;;;11.07;10.17;;;;;;;24.79;41.84;101561.56;5057331;28;20918;-66
2021/06/05 05:35:56;;;;;;;11.70;10.70;;;;;;;24.24;43.34;101559.06;5060616;28;20408;-66
2021/06/05 05:38:21;;;;;;;10.20;9.30;;;;;;;26.07;39.42;101566.41;5056086;28;20220;-66
2021/06/05 05:40:48;;;;;;;9.80;9.10;;;;;;;25.97;39.14;101568.56;5040252;28;20510;-66
2021/06/05 05:43:13;;;;;;;10.30;9.50;;;;;;;24.53;42.47;101566.91;5040406;28;20202;-67
2021/06/05 05:45:38;;;;;;;11.50;10.50;;;;;;;25.02;41.78;101568.72;5039244;28;20563;-66
2021/06/05 05:48:06;;;;;;;9.70;9.10;;;;;;;25.12;41.39;101572.75;5038315;28;20182;-65
2021/06/05 05:50:33;;;;;;;11.70;10.60;;;;;;;23.70;44.39;101575.00;5038723;28;20221;-66
2021/06/05 05:52:58;;;;;;;10.80;9.90;;;;;;;24.41;43.56;101577.09;5039656;28;20720;-66
2021/06/05 05:55:24;;;;;;;9.87;9.17;;;;;;;26.29;39.44;101569.00;5047951;28;20486;-66
2021/06/05 05:57:49;;;;;;;10.37;9.67;;;;;;;26.06;39.67;101573.56;5059764;28;20245;-66
2021/06/05 06:00:28;;;;;;;10.70;9.80;;;;;;;25.90;39.95;101578.63;5054426;28;20452;-68
2021/06/05 06:02:53;;;;;;;10.67;9.77;;;;;;;24.51;42.33;101575.88;5048293;28;20290;-68
2021/06/05 06:05:19;;;;;;;10.50;9.60;;;;;;;24.62;43.40;101576.38;5055090;28;20577;-68
2021/06/05 06:07:44;;;;;;;10.90;10.00;;;;;;;24.82;42.67;101585.47;5052093;28;20169;-68
2021/06/05 06:10:12;;;;;;;10.70;9.90;;;;;;;25.79;39.89;101581.75;5059619;28;20176;-67
2021/06/05 06:12:38;;;;;;;10.13;9.33;;;;;;;26.21;39.25;101583.56;5059125;28;20484;-67
2021/06/05 06:15:06;;;;;;;10.20;9.03;;;;;;;28.41;35.03;101573.28;5058771;28;20420;-67
2021/06/05 06:17:32;;;;;;;9.60;8.90;;;;;;;26.18;38.89;101586.38;5059731;28;20170;-67
2021/06/05 06:19:57;;;;;;;9.47;8.77;;;;;;;26.73;37.99;101569.72;5059237;28;20423;-67
2021/06/05 06:22:23;;;;;;;9.43;8.73;;;;;;;28.82;33.71;101559.53;5058526;28;20197;-67
2021/06/05 06:24:48;;;;;;;12.43;9.37;;;;;;;27.66;36.45;101561.91;5059314;28;20251;-68
2021/06/05 06:27:13;;;;;;;9.00;8.13;;;;;;;29.05;33.51;101560.06;5059269;28;20252;-68
2021/06/05 06:29:40;;;;;;;9.13;8.30;;;;;;;27.99;35.52;101555.78;5059492;28;20170;-68
2021/06/05 06:32:06;;;;;;;9.20;8.30;;;;;;;27.36;36.29;101552.59;5059025;28;20165;-67
2021/06/05 06:34:31;;;;;;;8.50;7.90;;;;;;;26.51;38.05;101563.59;5059000;28;20423;-66
2021/06/05 06:37:03;;;;;;;8.83;8.13;;;;;;;29.08;33.06;101551.84;5059275;28;20175;-68
2021/06/05 06:39:28;;;;;;;8.33;7.63;;;;;;;29.45;32.43;101552.47;5059103;28;20277;-67
2021/06/05 06:41:54;;;;;;;8.87;8.07;;;;;;;26.75;38.27;101552.75;5058905;28;20507;-67
2021/06/05 06:44:19;;;;;;;9.03;8.23;;;;;;;27.65;35.77;101544.06;5059097;28;20204;-67
2021/06/05 06:46:47;;;;;;;8.50;7.90;;;;;;;28.42;34.04;101548.22;5058781;28;20174;-68
2021/06/05 06:49:13;;;;;;;8.80;7.97;;;;;;;28.10;35.27;101549.91;5058829;28;20196;-68
2021/06/05 06:51:40;;;;;;;7.83;7.10;;;;;;;29.59;32.44;101556.19;5058971;28;20420;-68
2021/06/05 06:54:07;;;;;;;8.67;7.93;;;;;;;28.56;33.51;101559.09;5058675;28;20416;-68
2021/06/05 06:56:32;;;;;;;8.23;7.57;;;;;;;29.92;31.74;101563.25;5058655;28;20786;-68
2021/06/05 06:58:57;;;;;;;8.10;7.23;;;;;;;29.58;31.98;101566.09;5059021;28;20424;-68
2021/06/05 07:01:23;;;;;;;7.60;7.10;;;;;;;29.34;32.44;101560.28;5058551;28;20547;-69
2021/06/05 07:03:48;;;;;;;12.17;8.03;;;;;;;27.74;35.21;101562.38;5058211;28;20228;-69
2021/06/05 07:06:15;;;;;;;7.77;6.97;;;;;;;27.62;34.58;101557.63;5058947;28;20184;-68
2021/06/05 07:08:42;;;;;;;7.50;6.90;;;;;;;29.36;33.33;101553.00;5057568;28;20185;-68
2021/06/05 07:11:14;;;;;;;7.60;7.10;;;;;;;27.31;35.98;101553.72;5057877;28;20427;-67
2021/06/05 07:13:39;;;;;;;7.97;7.37;;;;;;;27.88;35.04;101559.00;5058123;28;20741;-68
2021/06/05 07:16:06;;;;;;;8.43;7.63;;;;;;;28.48;33.25;101557.75;5058170;28;20412;-67
2021/06/05 07:18:32;;;;;;;8.13;7.37;;;;;;;30.16;30.90;101545.69;5058433;28;20544;-69
2021/06/05 07:20:59;;;;;;;8.23;6.60;;;;;;;31.37;29.32;101541.72;5058014;28;20763;-68
2021/06/05 07:23:26;;;;;;;7.53;6.83;;;;;;;31.15;29.43;101541.38;5057862;28;20478;-69
2021/06/05 07:25:53;;;;;;;7.83;7.03;;;;;;;27.78;35.02;101553.25;5058013;28;20484;-68
2021/06/05 07:28:22;;;;;;;7.17;6.67;;;;;;;29.74;31.70;101539.16;5057651;28;20431;-68
2021/06/05 07:30:48;;;;;;;7.87;7.10;;;;;;;31.60;28.39;101550.16;5058183;28;20750;-65
2021/06/05 07:33:15;;;;;;;7.20;6.60;;;;;;;29.02;32.70;101544.13;5056929;28;20661;-67
2021/06/05 07:35:41;;;;;;;6.80;6.20;;;;;;;31.67;28.55;101534.44;5057930;28;20419;-67
2021/06/05 07:38:07;;;;;;;8.63;6.57;;;;;;;30.48;30.56;101545.53;5058417;28;20416;-67
2021/06/05 07:40:33;;;;;;;7.53;6.83;;;;;;;30.21;31.10;101548.94;5057851;28;20427;-66
2021/06/05 07:42:59;;;;;;;8.00;6.80;;;;;;;30.95;29.78;101545.38;5057634;28;20464;-67
2021/06/05 07:45:24;;;;;;;7.30;6.63;;;;;;;30.77;29.48;101540.19;5058004;28;20443;-68
2021/06/05 07:47:50;;;;;;;7.10;6.43;;;;;;;30.77;29.59;101542.88;5057932;28;20511;-68
2021/06/05 07:50:15;;;;;;;7.80;6.10;;;;;;;29.94;31.20;101545.22;5057696;28;20166;-68
2021/06/05 07:52:40;;;;;;;7.10;6.23;;;;;;;33.24;26.41;101528.81;5057902;28;20162;-66
2021/06/05 07:55:07;;;;;;;6.50;6.10;;;;;;;30.06;29.75;101549.88;5057292;28;20196;-71
2021/06/05 07:57:33;;;;;;;6.57;5.97;;;;;;;30.06;30.28;101544.50;5057499;28;20523;-70
2021/06/05 07:59:58;;;;;;;6.67;6.07;;;;;;;31.92;27.59;101539.03;5058123;28;20409;-72
2021/06/05 08:02:24;;;;;;;6.90;5.80;;;;;;;31.48;27.79;101542.84;5057388;28;20204;-70
2021/06/05 08:04:49;;;;;;;6.30;5.80;;;;;;;28.99;31.07;101553.22;5057526;28;20192;-70
2021/06/05 08:07:18;;;;;;;6.50;5.90;;;;;;;30.05;29.59;101557.09;5058111;28;20223;-77
2021/06/05 08:09:43;;;;;;;5.70;5.30;;;;;;;30.57;28.33;101544.97;5056915;28;20194;-71
2021/06/05 08:12:09;;;;;;;7.73;5.70;;;;;;;32.93;25.77;101541.00;5056406;28;20694;-71
2021/06/05 08:14:34;;;;;;;5.70;5.20;;;;;;;33.22;24.32;101530.75;5057336;28;20180;-71
2021/06/05 08:17:00;;;;;;;5.70;5.30;;;;;;;31.38;26.27;101543.47;5057342;28;20416;-72
2021/06/05 08:19:26;;;;;;;9.07;5.20;;;;;;;30.73;27.79;101544.03;5057497;28;20173;-71
2021/06/05 08:21:51;;;;;;;5.77;5.37;;;;;;;31.13;27.31;101544.19;5057778;28;20166;-70
2021/06/05 08:24:18;;;;;;;5.80;5.23;;;;;;;31.78;26.10;101539.94;5057207;28;20233;-71
2021/06/05 08:26:44;;;;;;;6.53;5.70;;;;;;;33.65;24.52;101532.13;5057569;28;20188;-70
2021/06/05 08:29:10;;;;;;;6.53;5.40;;;;;;;31.85;25.23;101538.59;5057727;28;20762;-71
2021/06/05 08:31:35;;;;;;;5.87;5.37;;;;;;;31.93;25.90;101540.75;5057193;28;20412;-71
2021/06/05 08:34:01;;;;;;;5.97;5.47;;;;;;;32.10;26.09;101544.97;5057289;28;20176;-71
2021/06/05 08:36:27;;;;;;;6.10;5.70;;;;;;;31.82;26.61;101538.78;5057536;28;20550;-71
2021/06/05 08:38:53;;;;;;;7.30;5.23;;;;;;;29.85;28.68;101546.59;5057261;28;20223;-71
2021/06/05 08:41:32;;;;;;;6.43;5.83;;;;;;;30.73;27.53;101542.19;5057237;28;20419;-71
2021/06/05 08:44:13;;;;;;;5.90;5.40;;;;;;;34.01;23.07;101549.22;5058287;28;20208;-70
2021/06/05 08:46:44;;;;;;;7.63;5.50;;;;;;;33.22;24.60;101530.75;5060295;28;20427;-71
2021/06/05 08:49:22;;;;;;;6.13;5.63;;;;;;;32.12;26.50;101536.78;5060118;28;20420;-71
2021/06/05 08:52:06;;;;;;;5.90;5.50;;;;;;;30.40;28.56;101537.06;5060020;28;20419;-72
2021/06/05 08:54:38;;;;;;;5.70;5.30;;;;;;;31.22;27.11;101540.03;5060645;28;20451;-70
2021/06/05 08:57:33;;;;;;;7.53;5.60;;;;;;;31.29;26.91;101545.91;5060837;28;20782;-71
2021/06/05 09:00:08;;;;;;;5.93;5.43;;;;;;;30.70;27.96;101541.50;5060668;28;20419;-71
2021/06/05 09:02:35;;;;;;;6.10;5.60;;;;;;;31.55;27.34;101539.66;5060656;28;20936;-71
2021/06/05 09:05:05;;;;;;;6.00;5.60;;;;;;;30.56;28.17;101543.25;5059846;28;20561;-70
2021/06/05 09:07:30;;;;;;;6.17;5.67;;;;;;;31.55;26.57;101541.47;5060830;28;20412;-71
2021/06/05 09:09:56;;;;;;;6.17;5.77;;;;;;;30.88;27.42;101547.59;5061115;28;20471;-71
2021/06/05 09:12:21;;;;;;;6.20;5.60;;;;;;;30.40;28.88;101542.44;5059942;28;20260;-71
2021/06/05 09:14:51;;;;;;;5.93;5.43;;;;;;;29.72;30.52;101544.63;5060638;28;20166;-71
2021/06/05 09:17:31;;;;;;;6.43;5.83;;;;;;;28.83;30.98;101550.50;5061073;28;20166;-70
2021/06/05 09:20:08;;;;;;;6.90;6.30;;;;;;;30.89;28.69;101534.00;5060577;28;20418;-70
2021/06/05 09:22:44;;;;;;;6.20;5.70;;;;;;;31.61;26.92;101529.44;5060235;28;20486;-71
2021/06/05 09:25:27;;;;;;;5.90;5.50;;;;;;;31.76;27.76;101523.03;5060374;28;20463;-71
2021/06/05 09:27:53;;;;;;;6.60;6.00;;;;;;;30.35;28.79;101528.41;5060451;28;20871;-72
2021/06/05 09:30:36;;;;;;;6.13;5.73;;;;;;;32.05;27.17;101521.00;5060278;28;20450;-71
2021/06/05 09:33:04;;;;;;;5.73;5.33;;;;;;;30.96;28.12;101529.09;5059841;28;20166;-70
2021/06/05 09:35:37;;;;;;;6.10;5.70;;;;;;;31.37;27.10;101525.56;5059929;28;20444;-70
2021/06/05 09:38:24;;;;;;;6.63;5.97;;;;;;;31.71;27.10;101520.63;5060081;28;20409;-71
2021/06/05 09:41:01;;;;;;;5.97;5.47;;;;;;;32.18;26.52;101523.75;5059799;28;20414;-70
2021/06/05 09:43:27;;;;;;;6.70;5.40;;;;;;;33.39;24.82;101521.41;5059116;28;20473;-71
2021/06/05 09:46:13;;;;;;;5.77;5.27;;;;;;;34.08;23.88;101530.66;5059771;28;20690;-71
2021/06/05 09:48:44;;;;;;;6.10;5.70;;;;;;;34.40;23.32;101516.50;5059115;28;20465;-70
2021/06/05 09:51:40;;;;;;;6.10;5.60;;;;;;;34.17;23.31;101519.13;5058993;28;20420;-72
2021/06/05 09:54:14;;;;;;;6.47;5.53;;;;;;;33.21;24.75;101525.47;5059856;28;20408;-71
2021/06/05 09:56:48;;;;;;;5.60;5.20;;;;;;;33.18;24.62;101526.56;5058850;28;20412;-72
2021/06/05 09:59:14;;;;;;;5.47;5.07;;;;;;;34.63;22.60;101516.47;5059626;28;20408;-71
2021/06/05 10:01:40;;;;;;;5.77;5.30;;;;;;;34.52;23.08;101520.91;5059561;28;20806;-71
2021/06/05 10:04:13;;;;;;;5.40;4.90;;;;;;;33.23;24.54;101524.38;5058829;28;20721;-71
2021/06/05 10:06:45;;;;;;;5.73;5.23;;;;;;;32.19;26.40;101528.19;5060069;28;20665;-71
2021/06/05 10:09:26;;;;;;;6.00;5.30;;;;;;;33.51;24.39;101525.03;5059013;28;20432;-71
2021/06/05 10:12:09;;;;;;;5.60;5.10;;;;;;;31.24;26.79;101528.22;5059525;28;20418;-71
2021/06/05 10:14:43;;;;;;;6.47;5.17;;;;;;;31.09;27.34;101520.25;5058828;28;20420;-70
2021/06/05 10:17:17;;;;;;;5.83;5.30;;;;;;;30.72;26.68;101520.75;5058726;28;20444;-71
2021/06/05 10:19:58;;;;;;;5.73;5.23;;;;;;;31.55;25.76;101509.13;5058578;28;20419;-71
2021/06/05 10:22:24;;;;;;;5.67;5.17;;;;;;;31.89;25.23;101507.75;5058105;28;20477;-71
2021/06/05 10:25:00;;;;;;;5.77;5.30;;;;;;;32.64;25.52;101518.75;5059273;28;20456;-71
2021/06/05 10:27:30;;;;;;;5.60;5.20;;;;;;;30.49;27.59;101514.16;5058526;28;20415;-71
2021/06/05 10:30:02;;;;;;;5.80;5.40;;;;;;;30.43;27.68;101515.34;5058422;28;20684;-70
2021/06/05 10:32:32;;;;;;;5.80;5.30;;;;;;;31.71;26.46;101509.00;5058135;28;20416;-71
2021/06/05 10:35:01;;;;;;;5.83;5.20;;;;;;;33.82;24.24;101511.91;5058361;28;20474;-71
2021/06/05 10:37:30;;;;;;;5.97;5.57;;;;;;;32.50;25.77;101512.53;5058979;28;20419;-70
2021/06/05 10:39:57;;;;;;;5.63;5.23;;;;;;;33.46;24.27;101511.00;5058926;28;20408;-71
2021/06/05 10:42:29;;;;;;;6.40;5.40;;;;;;;32.90;24.99;101508.81;5058618;28;21010;-71
2021/06/05 10:44:55;;;;;;;6.60;5.53;;;;;;;32.02;26.24;101502.34;5057885;28;20416;-71
2021/06/05 10:47:26;;;;;;;5.53;5.07;;;;;;;31.04;25.99;101516.03;5058835;28;20412;-71
2021/06/05 10:49:57;;;;;;;6.07;5.30;;;;;;;30.50;27.04;101516.72;5058221;28;20817;-70
2021/06/05 10:52:39;;;;;;;5.93;5.50;;;;;;;30.39;27.36;101516.47;5058659;28;20408;-71
2021/06/05 10:55:07;;;;;;;6.20;5.80;;;;;;;30.45;27.76;101513.47;5057835;28;20416;-70
2021/06/05 10:57:39;;;;;;;6.80;5.73;;;;;;;30.39;27.94;101503.91;5058340;28;20769;-72
2021/06/05 11:00:43;;;;;;;6.03;5.57;;;;;;;31.22;27.15;101502.34;5057484;28;20408;-70
2021/06/05 11:03:11;;;;;;;6.30;5.80;;;;;;;30.58;27.69;101502.81;5054843;28;20463;-69
2021/06/05 11:05:36;;;;;;;7.10;5.90;;;;;;;31.14;26.88;101492.06;5058025;28;20430;-68
2021/06/05 11:08:07;;;;;;;6.23;5.80;;;;;;;31.85;26.43;101497.25;5057839;28;20790;-68
2021/06/05 11:11:12;;;;;;;6.20;5.60;;;;;;;32.02;25.89;101479.91;5058173;28;20201;-68
2021/06/05 11:13:41;;;;;;;6.50;6.10;;;;;;;30.24;28.26;101483.34;5058374;28;20673;-67
2021/06/05 11:16:15;;;;;;;6.10;5.70;;;;;;;32.09;26.29;101473.13;5058381;28;20676;-68
2021/06/05 11:19:23;;;;;;;6.00;5.50;;;;;;;31.96;26.00;101474.94;5057348;28;20497;-68
2021/06/05 11:22:00;;;;;;;5.83;5.43;;;;;;;30.17;29.02;101476.63;5058092;28;20836;-67
2021/06/05 11:24:25;;;;;;;6.10;5.70;;;;;;;30.91;27.38;101464.75;5057667;28;20486;-66